sensor_id;sensor_type;location;lat;lon;timestamp;pressure;altitude;pressure_sealevel;temperature;humidity
59487;BME280;45298;54.918;73.504;2022-11-23T00:01:37;101064.78;;;-20.09;73.16
59487;BME280;45298;54.918;73.504;2022-11-23T00:04:09;101108.25;;;-19.90;73.33
59487;BME280;45298;54.918;73.504;2022-11-23T00:06:40;101075.00;;;-20.07;73.17
59487;BME280;45298;54.918;73.504;2022-11-23T00:09:09;101113.06;;;-19.94;73.25
59487;BME280;45298;54.918;73.504;2022-11-23T00:11:41;101106.38;;;-19.93;73.28
59487;BME280;45298;54.918;73.504;2022-11-23T00:14:09;101107.91;;;-19.95;73.69
59487;BME280;45298;54.918;73.504;2022-11-23T00:16:38;101099.44;;;-19.96;73.99
59487;BME280;45298;54.918;73.504;2022-11-23T00:19:08;101086.22;;;-20.03;73.57
59487;BME280;45298;54.918;73.504;2022-11-23T00:21:37;101103.38;;;-19.99;73.79
59487;BME280;45298;54.918;73.504;2022-11-23T00:24:08;101130.13;;;-19.91;73.59
59487;BME280;45298;54.918;73.504;2022-11-23T00:26:39;101102.66;;;-20.09;73.97
59487;BME280;45298;54.918;73.504;2022-11-23T00:29:08;101114.75;;;-20.04;73.76
59487;BME280;45298;54.918;73.504;2022-11-23T00:31:39;101108.75;;;-20.17;73.57
59487;BME280;45298;54.918;73.504;2022-11-23T00:34:07;101122.75;;;-20.10;73.48
59487;BME280;45298;54.918;73.504;2022-11-23T00:36:36;101143.28;;;-20.05;73.93
59487;BME280;45298;54.918;73.504;2022-11-23T00:39:05;101124.31;;;-20.23;73.52
59487;BME280;45298;54.918;73.504;2022-11-23T00:41:34;101147.13;;;-20.21;73.88
59487;BME280;45298;54.918;73.504;2022-11-23T00:44:03;101155.47;;;-20.22;73.38
59487;BME280;45298;54.918;73.504;2022-11-23T00:46:31;101149.16;;;-20.27;73.76
59487;BME280;45298;54.918;73.504;2022-11-23T00:49:00;101168.44;;;-20.17;73.87
59487;BME280;45298;54.918;73.504;2022-11-23T00:51:31;101171.09;;;-20.16;73.41
59487;BME280;45298;54.918;73.504;2022-11-23T00:54:03;101153.75;;;-20.33;73.67
59487;BME280;45298;54.918;73.504;2022-11-23T00:56:34;101156.03;;;-20.37;73.86
59487;BME280;45298;54.918;73.504;2022-11-23T00:59:04;101192.81;;;-20.18;73.78
59487;BME280;45298;54.918;73.504;2022-11-23T01:01:34;101174.28;;;-20.29;73.94
59487;BME280;45298;54.918;73.504;2022-11-23T01:04:07;101183.38;;;-20.31;73.42
59487;BME280;45298;54.918;73.504;2022-11-23T01:06:38;101186.16;;;-20.28;73.75
59487;BME280;45298;54.918;73.504;2022-11-23T01:09:16;101176.59;;;-20.42;73.51
59487;BME280;45298;54.918;73.504;2022-11-23T01:11:49;101203.97;;;-20.37;72.97
59487;BME280;45298;54.918;73.504;2022-11-23T01:14:22;101219.34;;;-20.33;73.30
59487;BME280;45298;54.918;73.504;2022-11-23T01:16:51;101193.66;;;-20.50;73.90
59487;BME280;45298;54.918;73.504;2022-11-23T01:19:20;101188.72;;;-20.59;73.93
59487;BME280;45298;54.918;73.504;2022-11-23T01:21:49;101210.28;;;-20.52;72.84
59487;BME280;45298;54.918;73.504;2022-11-23T01:24:20;101218.88;;;-20.50;72.96
59487;BME280;45298;54.918;73.504;2022-11-23T01:26:53;101241.31;;;-20.43;73.08
59487;BME280;45298;54.918;73.504;2022-11-23T01:29:23;101222.91;;;-20.62;73.30
59487;BME280;45298;54.918;73.504;2022-11-23T01:31:52;101222.66;;;-20.65;73.43
59487;BME280;45298;54.918;73.504;2022-11-23T01:34:21;101224.66;;;-20.61;73.73
59487;BME280;45298;54.918;73.504;2022-11-23T01:36:50;101224.41;;;-20.64;73.31
59487;BME280;45298;54.918;73.504;2022-11-23T01:39:19;101264.50;;;-20.47;73.90
59487;BME280;45298;54.918;73.504;2022-11-23T01:41:48;101236.53;;;-20.60;73.26
59487;BME280;45298;54.918;73.504;2022-11-23T01:44:27;101269.09;;;-20.53;73.64
59487;BME280;45298;54.918;73.504;2022-11-23T01:47:04;101187.25;;;-21.08;73.47
59487;BME280;45298;54.918;73.504;2022-11-23T01:49:45;101262.75;;;-20.58;73.63
59487;BME280;45298;54.918;73.504;2022-11-23T01:52:19;101265.53;;;-20.65;73.40
59487;BME280;45298;54.918;73.504;2022-11-23T01:54:55;101265.41;;;-20.67;73.79
59487;BME280;45298;54.918;73.504;2022-11-23T01:57:32;101279.66;;;-20.68;73.20
59487;BME280;45298;54.918;73.504;2022-11-23T02:00:04;101285.69;;;-20.65;73.89
59487;BME280;45298;54.918;73.504;2022-11-23T02:02:49;101300.34;;;-20.61;73.11
59487;BME280;45298;54.918;73.504;2022-11-23T02:05:23;101270.84;;;-20.83;73.18
59487;BME280;45298;54.918;73.504;2022-11-23T02:07:54;101285.47;;;-20.89;73.48
59487;BME280;45298;54.918;73.504;2022-11-23T02:10:24;101283.44;;;-20.83;74.04
59487;BME280;45298;54.918;73.504;2022-11-23T02:12:53;101298.97;;;-20.78;73.32
59487;BME280;45298;54.918;73.504;2022-11-23T02:15:22;101322.16;;;-20.72;73.66
59487;BME280;45298;54.918;73.504;2022-11-23T02:17:53;101295.16;;;-20.94;73.07
59487;BME280;45298;54.918;73.504;2022-11-23T02:20:21;101241.03;;;-21.29;73.41
59487;BME280;45298;54.918;73.504;2022-11-23T02:28:10;101321.88;;;-20.96;73.46
59487;BME280;45298;54.918;73.504;2022-11-23T02:30:41;101311.63;;;-21.08;73.85
59487;BME280;45298;54.918;73.504;2022-11-23T02:33:11;101355.28;;;-20.88;73.91
59487;BME280;45298;54.918;73.504;2022-11-23T02:35:56;101331.09;;;-20.96;73.37
59487;BME280;45298;54.918;73.504;2022-11-23T02:38:29;101360.34;;;-20.88;73.40
59487;BME280;45298;54.918;73.504;2022-11-23T02:41:00;101356.84;;;-20.90;73.41
59487;BME280;45298;54.918;73.504;2022-11-23T02:43:28;101374.38;;;-20.81;73.56
59487;BME280;45298;54.918;73.504;2022-11-23T02:46:01;101371.97;;;-20.90;73.85
59487;BME280;45298;54.918;73.504;2022-11-23T02:48:31;101387.00;;;-20.81;73.24
59487;BME280;45298;54.918;73.504;2022-11-23T02:51:02;101351.63;;;-21.02;73.48
59487;BME280;45298;54.918;73.504;2022-11-23T02:53:31;101365.63;;;-20.95;73.62
59487;BME280;45298;54.918;73.504;2022-11-23T02:56:00;101383.28;;;-20.85;73.17
59487;BME280;45298;54.918;73.504;2022-11-23T02:58:28;101393.25;;;-20.87;74.24
59487;BME280;45298;54.918;73.504;2022-11-23T03:00:57;101313.56;;;-21.35;73.50
59487;BME280;45298;54.918;73.504;2022-11-23T03:03:26;101401.59;;;-20.88;73.25
59487;BME280;45298;54.918;73.504;2022-11-23T03:05:55;101387.41;;;-20.96;73.27
59487;BME280;45298;54.918;73.504;2022-11-23T03:08:23;101381.50;;;-20.96;73.33
59487;BME280;45298;54.918;73.504;2022-11-23T03:10:52;101428.59;;;-20.76;73.94
59487;BME280;45298;54.918;73.504;2022-11-23T03:13:22;101328.47;;;-21.27;73.96
59487;BME280;45298;54.918;73.504;2022-11-23T03:15:54;101395.63;;;-20.88;73.54
59487;BME280;45298;54.918;73.504;2022-11-23T03:18:26;101420.50;;;-20.72;73.92
59487;BME280;45298;54.918;73.504;2022-11-23T03:20:54;101382.66;;;-20.93;73.97
59487;BME280;45298;54.918;73.504;2022-11-23T03:23:27;101396.41;;;-20.89;73.82
59487;BME280;45298;54.918;73.504;2022-11-23T03:25:58;101332.88;;;-21.25;73.83
59487;BME280;45298;54.918;73.504;2022-11-23T03:28:36;101416.50;;;-20.80;73.80
59487;BME280;45298;54.918;73.504;2022-11-23T03:31:05;101411.78;;;-20.86;73.76
59487;BME280;45298;54.918;73.504;2022-11-23T03:33:33;101450.78;;;-20.72;73.42
59487;BME280;45298;54.918;73.504;2022-11-23T03:36:03;101404.31;;;-20.95;73.17
59487;BME280;45298;54.918;73.504;2022-11-23T03:38:37;101459.47;;;-20.69;73.20
59487;BME280;45298;54.918;73.504;2022-11-23T03:41:19;101393.47;;;-21.04;73.61
59487;BME280;45298;54.918;73.504;2022-11-23T03:43:50;101439.19;;;-20.80;73.43
59487;BME280;45298;54.918;73.504;2022-11-23T03:46:19;101441.56;;;-20.82;73.32
59487;BME280;45298;54.918;73.504;2022-11-23T03:48:50;101425.91;;;-20.88;73.14
59487;BME280;45298;54.918;73.504;2022-11-23T03:51:20;101453.69;;;-20.78;73.10
59487;BME280;45298;54.918;73.504;2022-11-23T03:53:49;101445.09;;;-20.80;73.60
59487;BME280;45298;54.918;73.504;2022-11-23T03:56:17;101448.66;;;-20.78;72.85
59487;BME280;45298;54.918;73.504;2022-11-23T03:58:47;101470.09;;;-20.62;73.73
59487;BME280;45298;54.918;73.504;2022-11-23T04:01:16;101439.53;;;-20.86;73.17
59487;BME280;45298;54.918;73.504;2022-11-23T04:03:50;101449.88;;;-20.83;73.36
59487;BME280;45298;54.918;73.504;2022-11-23T04:06:36;101395.91;;;-21.15;72.69
59487;BME280;45298;54.918;73.504;2022-11-23T04:09:17;101461.75;;;-20.82;72.63
59487;BME280;45298;54.918;73.504;2022-11-23T04:12:14;101472.97;;;-20.78;73.42
59487;BME280;45298;54.918;73.504;2022-11-23T04:14:43;101499.34;;;-20.64;72.46
59487;BME280;45298;54.918;73.504;2022-11-23T04:17:11;101417.72;;;-21.15;73.08
59487;BME280;45298;54.918;73.504;2022-11-23T04:19:40;101497.81;;;-20.73;72.43
59487;BME280;45298;54.918;73.504;2022-11-23T04:22:09;101478.00;;;-20.78;72.52
59487;BME280;45298;54.918;73.504;2022-11-23T04:24:41;101507.94;;;-20.62;73.12
59487;BME280;45298;54.918;73.504;2022-11-23T04:27:10;101488.25;;;-20.77;72.56
59487;BME280;45298;54.918;73.504;2022-11-23T04:29:39;101484.44;;;-20.82;72.53
59487;BME280;45298;54.918;73.504;2022-11-23T04:32:07;101516.41;;;-20.62;72.87
59487;BME280;45298;54.918;73.504;2022-11-23T04:34:37;101504.41;;;-20.64;73.17
59487;BME280;45298;54.918;73.504;2022-11-23T04:37:07;101443.25;;;-21.02;72.32
59487;BME280;45298;54.918;73.504;2022-11-23T04:39:41;101498.59;;;-20.63;72.57
59487;BME280;45298;54.918;73.504;2022-11-23T04:42:24;101506.19;;;-20.63;72.59
59487;BME280;45298;54.918;73.504;2022-11-23T04:44:57;101452.38;;;-20.93;72.55
59487;BME280;45298;54.918;73.504;2022-11-23T04:47:26;101543.91;;;-20.35;72.74
59487;BME280;45298;54.918;73.504;2022-11-23T04:49:59;101534.28;;;-20.40;73.16
59487;BME280;45298;54.918;73.504;2022-11-23T04:52:28;101530.03;;;-20.30;73.10
59487;BME280;45298;54.918;73.504;2022-11-23T04:54:57;101515.38;;;-20.34;73.02
59487;BME280;45298;54.918;73.504;2022-11-23T04:57:28;101529.81;;;-20.23;72.84
59487;BME280;45298;54.918;73.504;2022-11-23T04:59:58;101508.94;;;-20.31;72.79
59487;BME280;45298;54.918;73.504;2022-11-23T05:02:28;101521.56;;;-20.31;72.40
59487;BME280;45298;54.918;73.504;2022-11-23T05:05:07;101518.69;;;-20.25;72.94
59487;BME280;45298;54.918;73.504;2022-11-23T05:07:37;101525.66;;;-20.23;72.85
59487;BME280;45298;54.918;73.504;2022-11-23T05:10:06;101555.00;;;-20.04;72.42
59487;BME280;45298;54.918;73.504;2022-11-23T05:12:35;101550.91;;;-20.12;72.59
59487;BME280;45298;54.918;73.504;2022-11-23T05:15:06;101476.22;;;-20.50;72.30
59487;BME280;45298;54.918;73.504;2022-11-23T05:17:37;101563.81;;;-19.99;72.67
59487;BME280;45298;54.918;73.504;2022-11-23T05:20:13;101567.50;;;-19.95;72.43
59487;BME280;45298;54.918;73.504;2022-11-23T05:22:46;101571.53;;;-19.97;72.08
59487;BME280;45298;54.918;73.504;2022-11-23T05:25:19;101553.97;;;-19.96;72.02
59487;BME280;45298;54.918;73.504;2022-11-23T05:27:56;101576.63;;;-19.77;72.13
59487;BME280;45298;54.918;73.504;2022-11-23T05:30:37;101584.69;;;-19.70;71.66
59487;BME280;45298;54.918;73.504;2022-11-23T05:33:07;101565.88;;;-19.84;71.74
59487;BME280;45298;54.918;73.504;2022-11-23T05:35:38;101503.31;;;-20.18;72.10
59487;BME280;45298;54.918;73.504;2022-11-23T05:38:07;101594.47;;;-19.65;71.47
59487;BME280;45298;54.918;73.504;2022-11-23T05:40:36;101596.56;;;-19.80;71.82
59487;BME280;45298;54.918;73.504;2022-11-23T05:43:06;101603.41;;;-19.68;71.93
59487;BME280;45298;54.918;73.504;2022-11-23T05:45:38;101585.56;;;-19.80;72.18
59487;BME280;45298;54.918;73.504;2022-11-23T05:48:09;101604.69;;;-19.63;72.09
59487;BME280;45298;54.918;73.504;2022-11-23T05:51:00;101524.97;;;-20.01;71.84
59487;BME280;45298;54.918;73.504;2022-11-23T05:53:35;101628.22;;;-19.43;71.95
59487;BME280;45298;54.918;73.504;2022-11-23T05:56:23;101596.34;;;-19.62;71.29
59487;BME280;45298;54.918;73.504;2022-11-23T05:59:05;101589.25;;;-19.66;71.37
59487;BME280;45298;54.918;73.504;2022-11-23T06:01:37;101542.53;;;-19.92;71.17
59487;BME280;45298;54.918;73.504;2022-11-23T06:04:08;101611.53;;;-19.52;71.38
59487;BME280;45298;54.918;73.504;2022-11-23T06:06:41;101543.13;;;-19.95;71.39
59487;BME280;45298;54.918;73.504;2022-11-23T06:09:10;101633.03;;;-19.36;71.71
59487;BME280;45298;54.918;73.504;2022-11-23T06:11:42;101640.13;;;-19.22;71.38
59487;BME280;45298;54.918;73.504;2022-11-23T06:14:16;101640.28;;;-19.10;71.54
59487;BME280;45298;54.918;73.504;2022-11-23T06:16:46;101634.84;;;-19.04;72.01
59487;BME280;45298;54.918;73.504;2022-11-23T06:19:29;101644.66;;;-18.87;71.41
59487;BME280;45298;54.918;73.504;2022-11-23T06:22:00;101634.16;;;-18.81;71.71
59487;BME280;45298;54.918;73.504;2022-11-23T06:24:32;101646.16;;;-18.68;71.55
59487;BME280;45298;54.918;73.504;2022-11-23T06:27:24;101634.41;;;-18.67;71.63
59487;BME280;45298;54.918;73.504;2022-11-23T06:29:53;101568.81;;;-18.97;71.79
59487;BME280;45298;54.918;73.504;2022-11-23T06:32:25;101644.09;;;-18.41;71.35
59487;BME280;45298;54.918;73.504;2022-11-23T06:34:54;101567.50;;;-18.81;71.26
59487;BME280;45298;54.918;73.504;2022-11-23T06:37:30;101652.94;;;-18.26;71.67
59487;BME280;45298;54.918;73.504;2022-11-23T06:40:00;101619.81;;;-18.39;71.09
59487;BME280;45298;54.918;73.504;2022-11-23T06:42:30;101674.72;;;-18.28;70.34
59487;BME280;45298;54.918;73.504;2022-11-23T06:45:18;101653.19;;;-18.33;71.25
59487;BME280;45298;54.918;73.504;2022-11-23T06:47:53;101638.78;;;-18.34;71.66
59487;BME280;45298;54.918;73.504;2022-11-23T06:50:24;101648.63;;;-18.27;71.08
59487;BME280;45298;54.918;73.504;2022-11-23T06:52:55;101664.84;;;-18.25;70.79
59487;BME280;45298;54.918;73.504;2022-11-23T06:55:44;101649.47;;;-18.16;70.95
59487;BME280;45298;54.918;73.504;2022-11-23T06:58:16;101657.22;;;-18.14;71.12
59487;BME280;45298;54.918;73.504;2022-11-23T07:00:46;101650.84;;;-18.09;70.36
59487;BME280;45298;54.918;73.504;2022-11-23T07:03:23;101675.63;;;-17.95;70.84
59487;BME280;45298;54.918;73.504;2022-11-23T07:06:05;101678.25;;;-17.93;71.11
59487;BME280;45298;54.918;73.504;2022-11-23T07:08:36;101647.56;;;-18.08;70.45
59487;BME280;45298;54.918;73.504;2022-11-23T07:11:33;101637.94;;;-18.12;70.21
59487;BME280;45298;54.918;73.504;2022-11-23T07:14:02;101685.81;;;-17.83;70.63
59487;BME280;45298;54.918;73.504;2022-11-23T07:16:34;101660.00;;;-17.89;70.67
59487;BME280;45298;54.918;73.504;2022-11-23T07:19:03;101683.25;;;-17.72;70.18
59487;BME280;45298;54.918;73.504;2022-11-23T07:21:32;101668.47;;;-17.78;69.78
59487;BME280;45298;54.918;73.504;2022-11-23T07:24:01;101684.19;;;-17.60;71.12
59487;BME280;45298;54.918;73.504;2022-11-23T07:26:30;101657.63;;;-17.65;70.33
59487;BME280;45298;54.918;73.504;2022-11-23T07:28:59;101683.16;;;-17.52;70.23
59487;BME280;45298;54.918;73.504;2022-11-23T07:31:29;101668.56;;;-17.54;70.14
59487;BME280;45298;54.918;73.504;2022-11-23T07:33:59;101677.69;;;-17.46;70.19
59487;BME280;45298;54.918;73.504;2022-11-23T07:36:30;101694.84;;;-17.32;70.80
59487;BME280;45298;54.918;73.504;2022-11-23T07:39:00;101706.34;;;-17.25;70.09
59487;BME280;45298;54.918;73.504;2022-11-23T07:41:30;101699.13;;;-17.30;70.37
59487;BME280;45298;54.918;73.504;2022-11-23T07:44:06;101676.91;;;-17.45;70.72
59487;BME280;45298;54.918;73.504;2022-11-23T07:46:35;101684.44;;;-17.35;69.54
59487;BME280;45298;54.918;73.504;2022-11-23T07:49:04;101683.06;;;-17.31;69.97
59487;BME280;45298;54.918;73.504;2022-11-23T07:51:34;101710.25;;;-17.18;69.42
59487;BME280;45298;54.918;73.504;2022-11-23T07:54:02;101715.09;;;-17.21;70.50
59487;BME280;45298;54.918;73.504;2022-11-23T07:56:31;101701.81;;;-17.29;70.64
59487;BME280;45298;54.918;73.504;2022-11-23T07:59:00;101706.72;;;-17.20;70.88
59487;BME280;45298;54.918;73.504;2022-11-23T08:01:29;101696.84;;;-17.27;70.75
59487;BME280;45298;54.918;73.504;2022-11-23T08:03:59;101718.72;;;-17.18;69.94
59487;BME280;45298;54.918;73.504;2022-11-23T08:06:28;101714.59;;;-17.27;69.84
59487;BME280;45298;54.918;73.504;2022-11-23T08:09:00;101706.22;;;-17.26;70.56
59487;BME280;45298;54.918;73.504;2022-11-23T08:11:30;101725.59;;;-17.17;70.37
59487;BME280;45298;54.918;73.504;2022-11-23T08:14:14;101723.81;;;-17.18;69.90
59487;BME280;45298;54.918;73.504;2022-11-23T08:16:49;101731.31;;;-17.19;69.83
59487;BME280;45298;54.918;73.504;2022-11-23T08:19:18;101721.56;;;-17.25;70.36
59487;BME280;45298;54.918;73.504;2022-11-23T08:21:48;101729.22;;;-17.13;70.45
59487;BME280;45298;54.918;73.504;2022-11-23T08:24:17;101706.47;;;-17.23;70.58
59487;BME280;45298;54.918;73.504;2022-11-23T08:26:46;101730.47;;;-17.08;70.34
59487;BME280;45298;54.918;73.504;2022-11-23T08:29:16;101732.00;;;-17.10;70.59
59487;BME280;45298;54.918;73.504;2022-11-23T08:31:44;101711.31;;;-17.26;70.66
59487;BME280;45298;54.918;73.504;2022-11-23T08:34:14;101742.69;;;-17.14;70.20
59487;BME280;45298;54.918;73.504;2022-11-23T08:36:45;101722.97;;;-17.28;71.07
59487;BME280;45298;54.918;73.504;2022-11-23T08:39:15;101727.47;;;-17.36;69.96
59487;BME280;45298;54.918;73.504;2022-11-23T08:41:45;101717.25;;;-17.48;69.59
59487;BME280;45298;54.918;73.504;2022-11-23T08:44:14;101754.44;;;-17.26;69.67
59487;BME280;45298;54.918;73.504;2022-11-23T08:46:43;101719.16;;;-17.45;70.40
59487;BME280;45298;54.918;73.504;2022-11-23T08:49:12;101731.53;;;-17.38;70.84
59487;BME280;45298;54.918;73.504;2022-11-23T08:51:41;101722.44;;;-17.46;69.41
59487;BME280;45298;54.918;73.504;2022-11-23T08:54:16;101741.06;;;-17.46;70.71
59487;BME280;45298;54.918;73.504;2022-11-23T08:56:46;101754.75;;;-17.44;70.51
59487;BME280;45298;54.918;73.504;2022-11-23T08:59:15;101756.53;;;-17.43;70.26
59487;BME280;45298;54.918;73.504;2022-11-23T09:01:45;101749.19;;;-17.50;70.71
59487;BME280;45298;54.918;73.504;2022-11-23T09:04:14;101742.66;;;-17.58;69.72
59487;BME280;45298;54.918;73.504;2022-11-23T09:06:47;101772.25;;;-17.47;69.99
59487;BME280;45298;54.918;73.504;2022-11-23T09:09:16;101748.25;;;-17.63;70.80
59487;BME280;45298;54.918;73.504;2022-11-23T09:11:45;101777.09;;;-17.50;70.40
59487;BME280;45298;54.918;73.504;2022-11-23T09:14:14;101765.22;;;-17.61;70.83
59487;BME280;45298;54.918;73.504;2022-11-23T09:16:43;101780.78;;;-17.57;70.09
59487;BME280;45298;54.918;73.504;2022-11-23T09:19:12;101742.97;;;-17.76;70.63
59487;BME280;45298;54.918;73.504;2022-11-23T09:21:41;101701.25;;;-18.02;70.71
59487;BME280;45298;54.918;73.504;2022-11-23T09:24:11;101777.38;;;-17.57;70.28
59487;BME280;45298;54.918;73.504;2022-11-23T09:26:40;101784.84;;;-17.59;70.59
59487;BME280;45298;54.918;73.504;2022-11-23T09:29:08;101793.81;;;-17.52;69.97
59487;BME280;45298;54.918;73.504;2022-11-23T09:31:37;101776.88;;;-17.64;70.41
59487;BME280;45298;54.918;73.504;2022-11-23T09:34:06;101768.53;;;-17.73;70.94
59487;BME280;45298;54.918;73.504;2022-11-23T09:36:35;101798.94;;;-17.63;70.40
59487;BME280;45298;54.918;73.504;2022-11-23T09:39:03;101800.47;;;-17.65;70.73
59487;BME280;45298;54.918;73.504;2022-11-23T09:44:19;101802.50;;;-17.71;71.00
59487;BME280;45298;54.918;73.504;2022-11-23T09:47:07;101805.31;;;-17.78;70.75
59487;BME280;45298;54.918;73.504;2022-11-23T09:52:23;101810.69;;;-17.96;70.38
59487;BME280;45298;54.918;73.504;2022-11-23T09:54:55;101805.25;;;-18.00;70.81
59487;BME280;45298;54.918;73.504;2022-11-23T09:57:28;101814.84;;;-17.96;71.03
59487;BME280;45298;54.918;73.504;2022-11-23T10:00:05;101806.66;;;-18.04;70.94
59487;BME280;45298;54.918;73.504;2022-11-23T10:02:38;101723.13;;;-18.56;70.92
59487;BME280;45298;54.918;73.504;2022-11-23T10:05:20;101797.03;;;-18.18;71.03
59487;BME280;45298;54.918;73.504;2022-11-23T10:10:52;101796.28;;;-18.28;70.84
59487;BME280;45298;54.918;73.504;2022-11-23T10:21:26;101828.81;;;-18.32;71.33
59487;BME280;45298;54.918;73.504;2022-11-23T10:24:10;101837.56;;;-18.39;71.93
59487;BME280;45298;54.918;73.504;2022-11-23T10:26:43;101801.19;;;-18.60;71.51
59487;BME280;45298;54.918;73.504;2022-11-23T10:29:27;101822.44;;;-18.58;71.89
59487;BME280;45298;54.918;73.504;2022-11-23T10:31:58;101819.53;;;-18.63;72.23
59487;BME280;45298;54.918;73.504;2022-11-23T10:34:48;101804.59;;;-18.80;71.78
59487;BME280;45298;54.918;73.504;2022-11-23T10:37:19;101808.75;;;-18.81;71.88
59487;BME280;45298;54.918;73.504;2022-11-23T10:39:47;101812.66;;;-18.85;72.06
59487;BME280;45298;54.918;73.504;2022-11-23T10:42:46;101845.44;;;-18.76;72.21
59487;BME280;45298;54.918;73.504;2022-11-23T10:45:23;101849.59;;;-18.87;72.55
59487;BME280;45298;54.918;73.504;2022-11-23T10:47:56;101856.31;;;-18.87;72.25
59487;BME280;45298;54.918;73.504;2022-11-23T10:50:36;101859.72;;;-18.97;72.43
59487;BME280;45298;54.918;73.504;2022-11-23T10:55:54;101868.53;;;-19.12;72.88
59487;BME280;45298;54.918;73.504;2022-11-23T10:58:39;101866.97;;;-19.21;72.58
59487;BME280;45298;54.918;73.504;2022-11-23T11:01:20;101847.09;;;-19.46;72.64
59487;BME280;45298;54.918;73.504;2022-11-23T11:03:54;101881.06;;;-19.33;72.52
59487;BME280;45298;54.918;73.504;2022-11-23T11:13:50;101845.09;;;-19.88;72.80
59487;BME280;45298;54.918;73.504;2022-11-23T11:16:36;101887.41;;;-19.66;73.11
59487;BME280;45298;54.918;73.504;2022-11-23T11:19:27;101857.97;;;-19.85;72.67
59487;BME280;45298;54.918;73.504;2022-11-23T11:26:09;101890.22;;;-19.82;72.62
59487;BME280;45298;54.918;73.504;2022-11-23T11:28:42;101868.97;;;-20.03;73.26
59487;BME280;45298;54.918;73.504;2022-11-23T11:31:29;101900.25;;;-19.93;73.23
59487;BME280;45298;54.918;73.504;2022-11-23T11:41:30;101848.31;;;-20.46;73.29
59487;BME280;45298;54.918;73.504;2022-11-23T11:44:12;101893.50;;;-20.30;72.80
59487;BME280;45298;54.918;73.504;2022-11-23T11:49:43;101908.88;;;-20.46;72.94
59487;BME280;45298;54.918;73.504;2022-11-23T12:09:51;101920.41;;;-20.76;73.82
59487;BME280;45298;54.918;73.504;2022-11-23T12:12:23;101917.47;;;-20.81;72.81
59487;BME280;45298;54.918;73.504;2022-11-23T12:14:56;101903.88;;;-21.01;73.28
59487;BME280;45298;54.918;73.504;2022-11-23T12:17:44;101927.16;;;-20.94;73.47
59487;BME280;45298;54.918;73.504;2022-11-23T12:27:21;101926.13;;;-21.14;74.00
59487;BME280;45298;54.918;73.504;2022-11-23T12:30:00;101925.84;;;-21.17;73.46
59487;BME280;45298;54.918;73.504;2022-11-23T12:32:47;101922.88;;;-21.22;73.90
59487;BME280;45298;54.918;73.504;2022-11-23T12:38:43;101934.75;;;-21.30;73.30
59487;BME280;45298;54.918;73.504;2022-11-23T12:41:25;101942.75;;;-21.34;73.01
59487;BME280;45298;54.918;73.504;2022-11-23T12:44:20;101939.50;;;-21.41;73.26
59487;BME280;45298;54.918;73.504;2022-11-23T12:49:45;101918.16;;;-21.71;73.22
59487;BME280;45298;54.918;73.504;2022-11-23T12:58:31;101958.88;;;-21.76;73.44
59487;BME280;45298;54.918;73.504;2022-11-23T13:10:13;101959.66;;;-21.68;73.69
59487;BME280;45298;54.918;73.504;2022-11-23T13:24:03;101947.47;;;-21.90;72.69
59487;BME280;45298;54.918;73.504;2022-11-23T13:26:32;101971.47;;;-21.84;72.83
59487;BME280;45298;54.918;73.504;2022-11-23T13:32:33;101974.13;;;-21.92;72.99
59487;BME280;45298;54.918;73.504;2022-11-23T13:35:26;101931.25;;;-22.27;72.94
59487;BME280;45298;54.918;73.504;2022-11-23T13:40:34;101955.53;;;-22.18;73.48
59487;BME280;45298;54.918;73.504;2022-11-23T13:43:25;101952.28;;;-22.17;73.39
59487;BME280;45298;54.918;73.504;2022-11-23T13:46:23;101958.97;;;-22.09;73.36
59487;BME280;45298;54.918;73.504;2022-11-23T13:48:58;101964.16;;;-22.08;73.55
59487;BME280;45298;54.918;73.504;2022-11-23T13:51:32;101982.38;;;-22.01;73.31
59487;BME280;45298;54.918;73.504;2022-11-23T13:54:24;101948.59;;;-22.12;73.85
59487;BME280;45298;54.918;73.504;2022-11-23T13:57:00;101964.16;;;-22.08;73.79
59487;BME280;45298;54.918;73.504;2022-11-23T13:59:31;101967.72;;;-22.06;73.26
59487;BME280;45298;54.918;73.504;2022-11-23T14:04:42;101980.91;;;-21.99;73.08
59487;BME280;45298;54.918;73.504;2022-11-23T14:07:24;101971.09;;;-22.05;73.58
59487;BME280;45298;54.918;73.504;2022-11-23T14:10:01;101958.78;;;-22.20;73.95
59487;BME280;45298;54.918;73.504;2022-11-23T14:12:46;101983.97;;;-22.11;73.49
59487;BME280;45298;54.918;73.504;2022-11-23T14:15:22;101950.78;;;-22.24;73.76
59487;BME280;45298;54.918;73.504;2022-11-23T14:21:06;101985.28;;;-22.14;73.39
59487;BME280;45298;54.918;73.504;2022-11-23T14:26:54;101944.66;;;-22.35;73.58
59487;BME280;45298;54.918;73.504;2022-11-23T14:41:15;101989.53;;;-22.31;72.81
59487;BME280;45298;54.918;73.504;2022-11-23T14:43:46;101965.78;;;-22.51;73.40
59487;BME280;45298;54.918;73.504;2022-11-23T14:46:17;101958.75;;;-22.62;72.95
59487;BME280;45298;54.918;73.504;2022-11-23T14:48:48;101891.81;;;-23.11;73.26
59487;BME280;45298;54.918;73.504;2022-11-23T14:51:23;101963.19;;;-22.68;73.54
59487;BME280;45298;54.918;73.504;2022-11-23T14:53:59;101973.56;;;-22.65;73.25
59487;BME280;45298;54.918;73.504;2022-11-23T14:56:39;102009.84;;;-22.54;73.58
59487;BME280;45298;54.918;73.504;2022-11-23T14:59:26;102003.78;;;-22.56;73.40
59487;BME280;45298;54.918;73.504;2022-11-23T15:02:03;101980.75;;;-22.77;73.12
59487;BME280;45298;54.918;73.504;2022-11-23T15:08:19;102008.69;;;-22.74;73.00
59487;BME280;45298;54.918;73.504;2022-11-23T15:11:25;102009.34;;;-22.84;73.04
59487;BME280;45298;54.918;73.504;2022-11-23T15:13:55;101987.53;;;-23.01;72.66
59487;BME280;45298;54.918;73.504;2022-11-23T15:16:38;102004.78;;;-22.88;73.01